Time;durP1;ratioP1;P1;durP2;ratioP2;P2;SDS_P1;SDS_P2;PMS_P1;PMS_P2;Temp;Humidity;BMP_temperature;BMP_pressure;BME280_temperature;BME280_humidity;BME280_pressure;Samples;Min_cycle;Max_cycle;Signal;HPM_P1;HPM_P2
2023/06/03 00:01:58;;;;;;;12.75;8.25;;;19.00;99.90;;;;;;7400366;19;19914;-72
2023/06/03 00:04:24;;;;;;;13.18;7.97;;;19.10;99.90;;;;;;7399962;19;19932;-73
2023/06/03 00:06:51;;;;;;;13.95;8.93;;;19.10;99.90;;;;;;7399677;19;20438;-72
2023/06/03 00:09:16;;;;;;;14.90;7.97;;;19.00;99.90;;;;;;7399304;19;19918;-73
2023/06/03 00:11:42;;;;;;;13.88;8.93;;;19.10;99.90;;;;;;7401437;19;20525;-72
2023/06/03 00:14:09;;;;;;;12.82;8.38;;;19.10;99.90;;;;;;7399661;19;20032;-73
2023/06/03 00:16:35;;;;;;;12.13;8.43;;;19.20;99.90;;;;;;7400148;19;19918;-72
2023/06/03 00:19:00;;;;;;;13.05;8.40;;;19.20;99.90;;;;;;7349145;19;19914;-72
2023/06/03 00:21:30;;;;;;;15.52;9.48;;;19.20;99.90;;;;;;7400913;19;19915;-72
2023/06/03 00:23:56;;;;;;;13.65;8.30;;;19.10;99.90;;;;;;7379616;19;20466;-72
2023/06/03 00:26:25;;;;;;;12.48;8.18;;;19.10;99.90;;;;;;7396049;19;19929;-73
2023/06/03 00:28:51;;;;;;;12.68;8.52;;;19.10;99.90;;;;;;7400266;19;19939;-71
2023/06/03 00:31:17;;;;;;;12.80;8.40;;;19.10;99.90;;;;;;7397286;19;19914;-71
2023/06/03 00:33:43;;;;;;;11.15;7.45;;;19.00;99.90;;;;;;7402110;19;20014;-72
2023/06/03 00:36:08;;;;;;;13.32;8.27;;;19.00;99.90;;;;;;7378694;19;20026;-72
2023/06/03 00:38:34;;;;;;;11.73;7.95;;;18.90;99.90;;;;;;7402198;19;19929;-71
2023/06/03 00:41:00;;;;;;;12.65;8.43;;;18.90;99.90;;;;;;7397458;19;19914;-73
2023/06/03 00:43:26;;;;;;;13.70;8.50;;;18.80;99.90;;;;;;7401169;19;19919;-72
2023/06/03 00:45:51;;;;;;;12.10;8.23;;;18.70;99.90;;;;;;7399601;19;19913;-72
2023/06/03 00:48:17;;;;;;;12.35;8.15;;;18.70;99.90;;;;;;7400118;19;19918;-73
2023/06/03 00:50:44;;;;;;;12.95;8.05;;;18.70;99.90;;;;;;7379123;19;20611;-72
2023/06/03 00:53:10;;;;;;;14.27;8.15;;;18.70;99.90;;;;;;7401031;19;19922;-72
2023/06/03 00:55:37;;;;;;;13.77;9.00;;;18.70;99.90;;;;;;7401899;19;19922;-72
2023/06/03 00:58:03;;;;;;;13.02;9.15;;;18.80;99.90;;;;;;7398562;19;20353;-72
2023/06/03 01:00:29;;;;;;;13.30;8.48;;;18.80;99.90;;;;;;7401538;19;19926;-72
2023/06/03 01:02:56;;;;;;;12.18;8.50;;;18.80;99.90;;;;;;7402429;19;19919;-72
2023/06/03 01:05:22;;;;;;;13.18;8.43;;;18.80;99.90;;;;;;7397203;19;20374;-72
2023/06/03 01:08:18;;;;;;;11.90;7.88;;;18.80;99.90;;;;;;7401060;19;19991;-73
2023/06/03 01:10:54;;;;;;;11.40;8.00;;;18.70;99.90;;;;;;7377147;19;20386;-73
2023/06/03 01:13:42;;;;;;;11.98;7.85;;;18.70;99.90;;;;;;7399600;19;19918;-72
2023/06/03 01:16:10;;;;;;;13.35;8.10;;;18.80;99.90;;;;;;7397354;19;19915;-72
2023/06/03 01:18:36;;;;;;;15.63;8.50;;;18.80;99.90;;;;;;7401576;19;20611;-72
2023/06/03 01:21:03;;;;;;;15.25;9.35;;;18.80;99.90;;;;;;7400176;19;19915;-72
2023/06/03 01:23:33;;;;;;;12.43;8.27;;;18.80;99.90;;;;;;7400086;19;19914;-72
2023/06/03 01:26:04;;;;;;;13.93;9.10;;;18.80;99.90;;;;;;7400759;19;19986;-72
2023/06/03 01:28:31;;;;;;;14.20;8.27;;;18.80;99.90;;;;;;7366793;19;19918;-72
2023/06/03 01:30:58;;;;;;;12.82;8.63;;;18.80;99.90;;;;;;7400956;19;19929;-72
2023/06/03 01:33:25;;;;;;;17.38;9.35;;;18.80;99.90;;;;;;7395874;19;19937;-72
2023/06/03 01:35:55;;;;;;;12.93;8.32;;;18.70;99.90;;;;;;7400401;19;20321;-72
2023/06/03 01:38:23;;;;;;;15.07;9.00;;;18.70;99.90;;;;;;7397811;19;20503;-72
2023/06/03 01:40:52;;;;;;;15.30;9.95;;;18.70;99.90;;;;;;7400402;19;19922;-72
2023/06/03 01:43:18;;;;;;;15.80;10.55;;;18.70;99.90;;;;;;7400585;19;20347;-72
2023/06/03 01:45:44;;;;;;;18.77;11.52;;;18.70;99.90;;;;;;7399323;19;19911;-72
2023/06/03 01:48:10;;;;;;;17.15;12.02;;;18.70;99.90;;;;;;7346579;19;19926;-72
2023/06/03 01:50:43;;;;;;;19.08;12.00;;;18.70;99.90;;;;;;7400403;19;19914;-73
2023/06/03 01:53:09;;;;;;;;;;;18.70;99.90;;;;;;7401897;19;19914;-72
2023/06/03 01:55:34;;;;;;;20.60;11.48;;;18.70;99.90;;;;;;7399984;19;19981;-71
2023/06/03 01:58:01;;;;;;;19.15;12.23;;;18.60;99.90;;;;;;7397510;19;19918;-71
2023/06/03 02:00:27;;;;;;;22.02;12.48;;;18.60;99.90;;;;;;7399850;19;19918;-72
2023/06/03 02:02:52;;;;;;;18.20;10.93;;;18.60;99.90;;;;;;7400283;19;19919;-72
2023/06/03 02:05:18;;;;;;;18.35;12.38;;;18.60;99.90;;;;;;7396370;19;19926;-72
2023/06/03 02:07:44;;;;;;;24.38;14.55;;;18.60;99.90;;;;;;7396482;19;19923;-72
2023/06/03 02:10:10;;;;;;;25.52;16.27;;;18.60;99.90;;;;;;7396562;19;19911;-72
2023/06/03 02:12:36;;;;;;;26.65;16.98;;;18.50;99.90;;;;;;7399536;19;19946;-72
2023/06/03 02:15:02;;;;;;;23.52;15.30;;;18.60;99.90;;;;;;7399643;19;19918;-71
2023/06/03 02:17:28;;;;;;;23.58;14.88;;;18.50;99.90;;;;;;7396679;19;19922;-72
2023/06/03 02:19:54;;;;;;;25.40;15.93;;;18.60;99.90;;;;;;7398642;19;19957;-72
2023/06/03 02:22:21;;;;;;;19.30;12.02;;;18.60;99.90;;;;;;7392434;19;19918;-73
2023/06/03 02:24:48;;;;;;;19.90;12.90;;;18.60;99.90;;;;;;7397501;19;19922;-72
2023/06/03 02:27:20;;;;;;;18.67;11.65;;;18.50;99.90;;;;;;7397464;19;20582;-71
2023/06/03 02:29:50;;;;;;;20.63;13.50;;;18.50;99.90;;;;;;7397278;19;19923;-73
2023/06/03 02:32:19;;;;;;;17.63;11.65;;;18.40;99.90;;;;;;7397592;19;19922;-72
2023/06/03 02:34:49;;;;;;;18.17;12.52;;;18.40;99.90;;;;;;7396294;19;19915;-71
2023/06/03 02:37:17;;;;;;;21.70;14.32;;;18.40;99.90;;;;;;7398307;19;20276;-73
2023/06/03 02:39:44;;;;;;;20.00;12.65;;;18.40;99.90;;;;;;7397994;19;19929;-72
2023/06/03 02:42:10;;;;;;;19.73;12.50;;;18.40;99.90;;;;;;7395730;19;20430;-72
2023/06/03 02:44:37;;;;;;;21.98;13.85;;;18.30;99.90;;;;;;7399161;19;19919;-72
2023/06/03 02:47:03;;;;;;;21.52;12.80;;;18.30;99.90;;;;;;7402463;19;19915;-72
2023/06/03 02:49:29;;;;;;;19.98;12.95;;;18.40;99.90;;;;;;7404086;19;19983;-71
2023/06/03 02:51:55;;;;;;;21.73;13.00;;;18.40;99.90;;;;;;7405064;19;19934;-72
2023/06/03 02:54:20;;;;;;;20.92;13.15;;;18.40;99.90;;;;;;7402341;19;19918;-73
2023/06/03 02:56:46;;;;;;;19.25;12.45;;;18.30;99.90;;;;;;7403369;19;19918;-72
2023/06/03 02:59:12;;;;;;;22.90;13.57;;;18.40;99.90;;;;;;7402979;19;20341;-72
2023/06/03 03:01:41;;;;;;;18.85;13.43;;;18.40;99.90;;;;;;7401330;19;19918;-72
2023/06/03 03:04:07;;;;;;;20.48;12.40;;;18.40;99.90;;;;;;7401026;19;19935;-72
2023/06/03 03:06:37;;;;;;;22.10;13.52;;;18.40;99.90;;;;;;7381614;19;19915;-71
2023/06/03 03:09:06;;;;;;;21.17;13.57;;;18.40;99.90;;;;;;7400852;19;20010;-72
2023/06/03 03:11:32;;;;;;;18.75;12.80;;;18.40;99.90;;;;;;7402177;19;19922;-73
2023/06/03 03:13:58;;;;;;;20.45;12.82;;;18.40;99.90;;;;;;7402485;19;19922;-72
2023/06/03 03:16:24;;;;;;;22.13;13.73;;;18.40;99.90;;;;;;7402729;19;19927;-72
2023/06/03 03:18:51;;;;;;;19.52;13.32;;;18.40;99.90;;;;;;7403044;19;19918;-71
2023/06/03 03:21:16;;;;;;;17.80;12.30;;;18.30;99.90;;;;;;7403698;19;19921;-72
2023/06/03 03:23:42;;;;;;;21.42;14.10;;;18.30;99.90;;;;;;7404677;19;19914;-72
2023/06/03 03:26:08;;;;;;;19.60;12.73;;;18.30;99.90;;;;;;7400734;19;19918;-71
2023/06/03 03:28:35;;;;;;;19.45;13.15;;;18.20;99.90;;;;;;7404364;19;19921;-73
2023/06/03 03:31:01;;;;;;;24.83;15.20;;;18.20;99.90;;;;;;7402861;19;20292;-71
2023/06/03 03:33:28;;;;;;;22.77;14.57;;;18.00;99.90;;;;;;7404046;19;20255;-72
2023/06/03 03:35:55;;;;;;;22.30;15.25;;;17.90;99.90;;;;;;7401677;19;19915;-72
2023/06/03 03:38:21;;;;;;;22.80;13.85;;;17.80;99.90;;;;;;7401866;19;20628;-72
2023/06/03 03:40:47;;;;;;;25.63;15.20;;;17.90;99.90;;;;;;7404171;19;19918;-72
2023/06/03 03:43:19;;;;;;;25.80;15.43;;;17.90;99.90;;;;;;7401152;19;19921;-72
2023/06/03 03:45:45;;;;;;;23.15;13.20;;;17.90;99.90;;;;;;7401910;19;20304;-72
2023/06/03 03:48:15;;;;;;;24.08;14.60;;;17.90;99.90;;;;;;7400276;19;19929;-73
2023/06/03 03:50:45;;;;;;;22.33;14.07;;;18.00;99.90;;;;;;7402786;19;19923;-71
2023/06/03 03:53:18;;;;;;;25.95;14.52;;;18.00;99.90;;;;;;7399862;19;19994;-72
2023/06/03 03:55:47;;;;;;;21.60;14.50;;;18.00;99.90;;;;;;7404469;19;19934;-72
2023/06/03 03:58:27;;;;;;;21.55;14.73;;;18.00;99.90;;;;;;7400849;19;19922;-71
2023/06/03 04:01:18;;;;;;;20.92;14.27;;;18.00;99.90;;;;;;7401966;19;20338;-71
2023/06/03 04:03:46;;;;;;;19.80;12.65;;;17.90;99.90;;;;;;7403359;19;20662;-72
2023/06/03 04:06:27;;;;;;;18.20;12.60;;;18.00;99.90;;;;;;7380391;19;20228;-72
2023/06/03 04:08:54;;;;;;;20.45;13.95;;;18.00;99.90;;;;;;7402968;19;19926;-71
2023/06/03 04:11:26;;;;;;;20.58;13.07;;;18.00;99.90;;;;;;7402204;19;20319;-71
2023/06/03 04:13:52;;;;;;;20.33;12.63;;;18.00;99.90;;;;;;7402752;19;20258;-71
2023/06/03 04:16:46;;;;;;;17.58;12.15;;;18.00;99.90;;;;;;7400771;19;19926;-72
2023/06/03 04:19:36;;;;;;;17.10;11.70;;;18.00;99.90;;;;;;7399321;19;20340;-71
2023/06/03 04:22:05;;;;;;;17.88;11.98;;;18.00;99.90;;;;;;7402413;19;19982;-71
2023/06/03 04:24:34;;;;;;;19.42;12.60;;;18.00;99.90;;;;;;7402786;19;19923;-72
2023/06/03 04:27:03;;;;;;;16.33;11.40;;;18.10;99.90;;;;;;7401562;19;19946;-72
2023/06/03 04:29:30;;;;;;;16.45;10.88;;;18.10;99.90;;;;;;7402786;19;19918;-71
2023/06/03 04:31:56;;;;;;;17.52;10.88;;;18.10;99.90;;;;;;7402993;19;19923;-71
2023/06/03 04:34:22;;;;;;;16.65;10.68;;;18.10;99.90;;;;;;7399049;19;19975;-71
2023/06/03 04:36:47;;;;;;;16.25;11.43;;;18.20;99.90;;;;;;7402762;19;19924;-71
2023/06/03 04:39:13;;;;;;;17.58;11.85;;;18.20;99.90;;;;;;7377025;19;19946;-72
2023/06/03 04:41:40;;;;;;;17.13;11.38;;;18.20;99.90;;;;;;7369696;19;19935;-72
2023/06/03 04:44:08;;;;;;;19.00;11.35;;;18.20;99.90;;;;;;7399727;19;19996;-71
2023/06/03 04:46:35;;;;;;;15.52;11.25;;;18.20;99.90;;;;;;7400669;19;19990;-71
2023/06/03 04:49:01;;;;;;;;;;;18.30;99.90;;;;;;7379185;19;19907;-72
2023/06/03 04:51:28;;;;;;;18.15;10.88;;;18.30;99.90;;;;;;7396070;19;19923;-71
2023/06/03 04:53:57;;;;;;;17.02;10.70;;;18.40;99.90;;;;;;7401694;19;19930;-72
2023/06/03 04:56:29;;;;;;;19.08;11.82;;;18.40;99.90;;;;;;7399414;19;19934;-72
2023/06/03 04:59:03;;;;;;;19.48;11.25;;;18.40;99.90;;;;;;7397680;19;20441;-71
2023/06/03 05:01:31;;;;;;;19.98;12.55;;;18.40;99.90;;;;;;7399023;19;20277;-72
2023/06/03 05:03:59;;;;;;;19.05;11.63;;;18.50;99.90;;;;;;7402816;19;19927;-71
2023/06/03 05:06:25;;;;;;;24.08;14.88;;;18.50;99.90;;;;;;7378808;19;19922;-71
2023/06/03 05:08:51;;;;;;;19.80;14.02;;;18.50;99.90;;;;;;7398245;19;19939;-72
2023/06/03 05:11:18;;;;;;;17.95;12.73;;;18.50;99.90;;;;;;7400758;19;19922;-71
2023/06/03 05:13:43;;;;;;;;;;;18.50;99.90;;;;;;7403259;19;20414;-72
2023/06/03 05:16:10;;;;;;;19.17;11.40;;;18.50;99.90;;;;;;7398654;19;19922;-73
2023/06/03 05:18:36;;;;;;;;;;;18.60;99.90;;;;;;7404036;19;20047;-72
2023/06/03 05:21:02;;;;;;;16.30;11.15;;;18.60;99.90;;;;;;7399391;19;20300;-72
2023/06/03 05:23:28;;;;;;;15.50;10.63;;;18.60;99.90;;;;;;7398217;19;19926;-71
2023/06/03 05:25:54;;;;;;;18.00;10.02;;;18.70;99.90;;;;;;7399098;19;19915;-73
2023/06/03 05:28:21;;;;;;;18.88;11.30;;;18.70;99.90;;;;;;7397834;19;19943;-73
2023/06/03 05:30:47;;;;;;;14.27;10.25;;;18.80;99.90;;;;;;7401318;19;19922;-73
2023/06/03 05:33:26;;;;;;;16.77;11.18;;;18.90;99.90;;;;;;7398404;19;19910;-73
2023/06/03 05:35:52;;;;;;;17.65;10.27;;;18.90;99.90;;;;;;7399501;19;19926;-73
2023/06/03 05:38:20;;;;;;;17.52;10.23;;;19.00;99.90;;;;;;7397871;19;19914;-73
2023/06/03 05:40:47;;;;;;;17.40;10.10;;;19.00;99.90;;;;;;7399566;19;20243;-73
2023/06/03 05:43:14;;;;;;;17.05;10.55;;;19.00;99.90;;;;;;7399612;19;19914;-72
2023/06/03 05:45:40;;;;;;;15.05;10.32;;;19.00;99.90;;;;;;7397854;19;20301;-72
2023/06/03 05:48:05;;;;;;;15.07;9.68;;;19.10;99.90;;;;;;7398596;19;19919;-72
2023/06/03 05:50:38;;;;;;;14.95;10.27;;;19.20;99.90;;;;;;7399771;19;19922;-72
2023/06/03 05:53:04;;;;;;;14.45;9.65;;;19.30;99.90;;;;;;7395803;19;19911;-73
2023/06/03 05:55:30;;;;;;;14.70;9.48;;;19.30;99.90;;;;;;7400098;19;20031;-74
2023/06/03 05:57:56;;;;;;;16.13;9.88;;;19.30;99.90;;;;;;7399508;19;20343;-72
2023/06/03 06:00:23;;;;;;;18.33;11.20;;;19.40;99.90;;;;;;7395749;19;19939;-72
2023/06/03 06:02:50;;;;;;;15.70;10.63;;;19.40;99.90;;;;;;7396195;19;20340;-73
2023/06/03 06:05:16;;;;;;;18.42;11.15;;;19.30;99.90;;;;;;7396269;19;19910;-72
2023/06/03 06:07:41;;;;;;;16.17;9.93;;;19.40;99.90;;;;;;7398061;19;19922;-73
2023/06/03 06:10:07;;;;;;;14.80;10.15;;;19.40;99.90;;;;;;7396461;19;20577;-72
2023/06/03 06:12:33;;;;;;;19.30;11.23;;;19.50;99.90;;;;;;7399383;19;19927;-72
2023/06/03 06:14:59;;;;;;;16.60;11.27;;;19.50;99.90;;;;;;7398466;19;19911;-73
2023/06/03 06:17:25;;;;;;;15.18;10.35;;;19.60;99.90;;;;;;7397850;19;19931;-72
2023/06/03 06:19:50;;;;;;;20.75;12.93;;;19.70;99.90;;;;;;7399031;19;19921;-73
2023/06/03 06:22:16;;;;;;;17.30;10.45;;;19.80;99.60;;;;;;7403537;19;20295;-72
2023/06/03 06:24:42;;;;;;;17.08;10.35;;;19.90;99.20;;;;;;7407492;19;19980;-75
2023/06/03 06:27:08;;;;;;;15.57;10.40;;;19.90;99.00;;;;;;7402714;19;19919;-72
2023/06/03 06:29:34;;;;;;;14.13;8.88;;;20.00;98.50;;;;;;7406594;19;19914;-73
2023/06/03 06:32:01;;;;;;;11.93;7.93;;;20.10;98.00;;;;;;7403516;19;19922;-72
2023/06/03 06:34:31;;;;;;;;;;;20.20;97.20;;;;;;7405422;19;20691;-73
2023/06/03 06:36:59;;;;;;;12.38;8.57;;;20.20;96.80;;;;;;7404085;19;19943;-72
2023/06/03 06:39:34;;;;;;;12.48;8.25;;;20.30;96.00;;;;;;7401932;19;20339;-71
2023/06/03 06:42:11;;;;;;;12.05;7.88;;;20.50;95.40;;;;;;7406287;19;20331;-73
2023/06/03 06:44:46;;;;;;;12.23;7.75;;;20.50;94.90;;;;;;7405186;19;19927;-71
2023/06/03 06:47:14;;;;;;;10.35;7.18;;;20.50;94.20;;;;;;7403678;19;19939;-72
2023/06/03 06:49:40;;;;;;;13.40;7.22;;;20.50;93.80;;;;;;7404220;19;21481;-71
2023/06/03 06:52:09;;;;;;;10.35;7.20;;;20.60;93.40;;;;;;7404272;19;19943;-73
2023/06/03 06:54:35;;;;;;;10.75;6.93;;;20.70;93.00;;;;;;7383360;19;19990;-72
2023/06/03 06:57:01;;;;;;;10.52;7.38;;;20.70;92.50;;;;;;7374135;19;19910;-71
2023/06/03 06:59:27;;;;;;;12.18;7.00;;;20.80;92.30;;;;;;7403194;19;19911;-73
2023/06/03 07:01:52;;;;;;;13.68;7.93;;;20.80;91.60;;;;;;7405688;19;19914;-73
2023/06/03 07:04:18;;;;;;;12.55;7.68;;;20.90;91.50;;;;;;7370684;19;19919;-72
2023/06/03 07:06:44;;;;;;;11.60;7.97;;;21.00;91.50;;;;;;7404265;19;19918;-73
2023/06/03 07:09:10;;;;;;;13.25;8.05;;;21.10;91.30;;;;;;7404408;19;19919;-72
2023/06/03 07:11:45;;;;;;;9.88;7.20;;;21.10;91.30;;;;;;7403365;19;19922;-73
2023/06/03 07:14:11;;;;;;;12.63;7.63;;;21.20;91.00;;;;;;7403940;19;20612;-72
2023/06/03 07:16:36;;;;;;;13.40;8.50;;;21.30;90.60;;;;;;7403727;19;20484;-72
2023/06/03 07:19:04;;;;;;;12.35;8.70;;;21.40;90.40;;;;;;7352504;19;19911;-73
2023/06/03 07:21:30;;;;;;;14.18;8.38;;;21.40;90.30;;;;;;7404663;19;19915;-72
2023/06/03 07:23:56;;;;;;;12.93;8.52;;;21.50;90.30;;;;;;7403106;19;19923;-73
2023/06/03 07:26:31;;;;;;;12.73;8.70;;;21.50;90.10;;;;;;7401434;19;19930;-73
2023/06/03 07:28:58;;;;;;;17.48;9.15;;;21.60;90.10;;;;;;7404449;19;20253;-73
2023/06/03 07:31:24;;;;;;;14.30;9.07;;;21.60;89.80;;;;;;7402756;19;19927;-73
2023/06/03 07:33:55;;;;;;;13.93;8.00;;;21.70;89.50;;;;;;7405219;19;19926;-73
2023/06/03 07:36:26;;;;;;;12.57;9.05;;;21.80;88.80;;;;;;7400325;19;19932;-72
2023/06/03 07:39:05;;;;;;;14.27;9.23;;;21.90;88.50;;;;;;7404632;19;19926;-72
2023/06/03 07:41:44;;;;;;;14.38;8.65;;;21.90;88.00;;;;;;7398052;19;19914;-72
2023/06/03 07:44:12;;;;;;;13.43;8.98;;;22.00;87.80;;;;;;7400605;19;20378;-72
2023/06/03 07:46:45;;;;;;;16.42;9.35;;;22.10;86.90;;;;;;7404474;19;20221;-72
2023/06/03 07:49:16;;;;;;;15.57;10.38;;;22.20;87.10;;;;;;7400822;19;20297;-72
2023/06/03 07:51:47;;;;;;;15.70;10.85;;;22.20;86.60;;;;;;7404771;19;19941;-72
2023/06/03 07:54:14;;;;;;;15.25;9.35;;;22.20;86.20;;;;;;7400953;19;19933;-73
2023/06/03 07:56:40;;;;;;;16.33;10.63;;;22.30;85.80;;;;;;7402902;19;19922;-72
2023/06/03 07:59:09;;;;;;;14.98;10.25;;;22.30;85.30;;;;;;7397565;19;20291;-72
2023/06/03 08:01:36;;;;;;;13.82;10.25;;;22.30;85.50;;;;;;7403085;19;19919;-72
2023/06/03 08:04:17;;;;;;;12.60;8.85;;;22.40;85.00;;;;;;7370327;19;19910;-72
2023/06/03 08:06:49;;;;;;;13.90;9.02;;;22.50;84.30;;;;;;7401018;19;19922;-73
2023/06/03 08:09:24;;;;;;;15.00;9.15;;;22.50;84.00;;;;;;7365468;19;19937;-74
2023/06/03 08:11:55;;;;;;;15.27;8.80;;;22.40;84.20;;;;;;7397777;19;19998;-74
2023/06/03 08:14:22;;;;;;;13.75;9.98;;;22.30;84.40;;;;;;7352693;19;19917;-72
2023/06/03 08:16:48;;;;;;;15.63;9.80;;;22.00;84.80;;;;;;7398965;19;19921;-72
2023/06/03 08:19:16;;;;;;;14.73;10.27;;;22.00;85.30;;;;;;7403067;19;20294;-74
2023/06/03 08:21:44;;;;;;;14.38;9.77;;;22.20;85.20;;;;;;7407570;19;19915;-73
2023/06/03 08:24:10;;;;;;;16.25;10.00;;;22.30;84.50;;;;;;7403794;19;19961;-74
2023/06/03 08:26:36;;;;;;;16.27;9.55;;;22.50;83.90;;;;;;7402478;19;19919;-76
2023/06/03 08:29:03;;;;;;;17.80;11.10;;;22.60;83.60;;;;;;7354731;19;19935;-73
2023/06/03 08:31:32;;;;;;;14.30;10.00;;;22.80;82.20;;;;;;7406567;19;19951;-73
2023/06/03 08:33:58;;;;;;;16.80;10.63;;;22.80;81.80;;;;;;7376684;19;19963;-73
2023/06/03 08:36:25;;;;;;;14.93;9.82;;;23.00;81.40;;;;;;7400135;19;19933;-74
2023/06/03 08:38:51;;;;;;;14.95;10.15;;;22.80;80.60;;;;;;7399292;19;19911;-74
2023/06/03 08:41:17;;;;;;;17.42;11.27;;;22.90;80.90;;;;;;7404747;19;20016;-73
2023/06/03 08:43:51;;;;;;;16.50;10.80;;;23.00;80.30;;;;;;7395389;19;20277;-74
2023/06/03 08:46:30;;;;;;;16.67;11.52;;;23.20;80.00;;;;;;7398409;19;19974;-74
2023/06/03 08:49:08;;;;;;;18.15;13.45;;;23.30;80.40;;;;;;7399472;19;19922;-73
2023/06/03 08:51:38;;;;;;;23.25;13.60;;;23.50;80.40;;;;;;7394293;19;19926;-74
2023/06/03 08:54:13;;;;;;;21.17;12.98;;;23.60;79.90;;;;;;7388825;19;19922;-74
2023/06/03 08:56:56;;;;;;;20.02;12.95;;;23.70;79.90;;;;;;7402738;19;19918;-74
2023/06/03 08:59:24;;;;;;;20.85;13.68;;;23.80;79.50;;;;;;7380997;19;19935;-74
2023/06/03 09:01:55;;;;;;;20.70;14.18;;;23.40;80.80;;;;;;7403798;19;19915;-73
2023/06/03 09:04:24;;;;;;;23.25;13.68;;;23.50;80.60;;;;;;7404252;19;19923;-76
2023/06/03 09:06:53;;;;;;;19.45;13.48;;;23.50;80.30;;;;;;7402917;19;19919;-73
2023/06/03 09:09:21;;;;;;;21.88;14.90;;;23.80;80.10;;;;;;7401266;19;19918;-75
2023/06/03 09:11:49;;;;;;;20.80;13.70;;;24.00;78.30;;;;;;7405151;19;19915;-74
2023/06/03 09:14:17;;;;;;;21.55;12.77;;;24.00;78.40;;;;;;7399829;19;19915;-74
2023/06/03 09:16:43;;;;;;;22.25;13.20;;;24.20;77.80;;;;;;7400746;19;19915;-74
2023/06/03 09:19:10;;;;;;;17.30;13.05;;;24.30;77.20;;;;;;7401001;19;19929;-73
2023/06/03 09:21:37;;;;;;;;;;;24.30;77.70;;;;;;7405048;19;20343;-74
2023/06/03 09:24:03;;;;;;;17.77;12.88;;;24.40;77.40;;;;;;7403270;19;19918;-74
2023/06/03 09:26:29;;;;;;;18.88;14.38;;;24.20;78.20;;;;;;7403429;19;20344;-74
2023/06/03 09:28:57;;;;;;;20.98;14.32;;;24.10;78.30;;;;;;7403845;19;20249;-74
2023/06/03 09:31:24;;;;;;;20.58;14.85;;;24.30;78.60;;;;;;7380536;19;19989;-74
2023/06/03 09:33:51;;;;;;;20.73;12.90;;;23.90;79.40;;;;;;7402572;19;20274;-74
2023/06/03 09:36:17;;;;;;;20.40;12.63;;;23.80;80.60;;;;;;7399410;19;20361;-74
2023/06/03 09:38:48;;;;;;;19.17;12.32;;;24.10;80.00;;;;;;7402733;19;19927;-75
2023/06/03 09:41:15;;;;;;;16.13;12.55;;;24.30;79.70;;;;;;7400542;19;19938;-74
2023/06/03 09:43:52;;;;;;;22.42;13.70;;;24.50;79.20;;;;;;7401321;19;19923;-75
2023/06/03 09:46:19;;;;;;;22.30;14.93;;;24.40;79.30;;;;;;7398111;19;19915;-74
2023/06/03 09:48:46;;;;;;;20.35;13.23;;;23.80;80.00;;;;;;7400402;19;20609;-75
2023/06/03 09:51:12;;;;;;;18.90;13.48;;;24.10;80.00;;;;;;7399957;19;19913;-75
2023/06/03 09:53:37;;;;;;;18.90;13.75;;;24.40;79.30;;;;;;7399740;19;20294;-74
2023/06/03 09:56:22;;;;;;;18.75;12.32;;;24.00;80.90;;;;;;7402986;19;19978;-74
2023/06/03 09:58:50;;;;;;;17.98;12.63;;;23.00;83.80;;;;;;7406469;19;19930;-74
2023/06/03 10:01:18;;;;;;;15.93;10.57;;;23.20;84.00;;;;;;7404057;19;19918;-74
2023/06/03 10:03:58;;;;;;;15.15;10.25;;;23.50;82.40;;;;;;7404173;19;19913;-74
2023/06/03 10:06:24;;;;;;;16.08;10.15;;;23.90;81.50;;;;;;7399472;19;19918;-74
2023/06/03 10:08:50;;;;;;;13.68;9.32;;;24.00;80.10;;;;;;7406114;19;20349;-73
2023/06/03 10:11:16;;;;;;;14.45;9.30;;;24.20;80.30;;;;;;7405841;19;19922;-74
2023/06/03 10:13:41;;;;;;;11.93;8.48;;;24.00;79.80;;;;;;7409431;19;20372;-74
2023/06/03 10:16:11;;;;;;;12.63;8.15;;;23.90;79.20;;;;;;7402864;19;19911;-74
2023/06/03 10:18:41;;;;;;;13.93;8.73;;;24.20;78.60;;;;;;7405894;19;19948;-74
2023/06/03 10:21:10;;;;;;;13.18;7.88;;;24.10;79.00;;;;;;7402546;19;19911;-74
2023/06/03 10:23:41;;;;;;;13.75;8.00;;;24.50;78.10;;;;;;7401707;19;20065;-74
2023/06/03 10:26:07;;;;;;;11.48;8.07;;;24.50;78.70;;;;;;7384084;19;19955;-74
2023/06/03 10:28:34;;;;;;;;;;;24.10;80.50;;;;;;7407900;19;19943;-75
2023/06/03 10:31:01;;;;;;;11.45;5.88;;;23.60;80.60;;;;;;7396840;19;19923;-74
2023/06/03 10:33:32;;;;;;;8.52;6.20;;;23.40;80.50;;;;;;7398196;19;19918;-74
2023/06/03 10:36:01;;;;;;;11.07;6.25;;;22.60;82.70;;;;;;7404099;19;19927;-74
2023/06/03 10:38:27;;;;;;;8.02;4.88;;;22.30;83.70;;;;;;7403041;19;19914;-75
2023/06/03 10:40:54;;;;;;;9.23;5.95;;;22.40;84.00;;;;;;7402951;19;19926;-74
2023/06/03 10:43:23;;;;;;;8.35;5.95;;;22.50;84.90;;;;;;7404208;19;19945;-74
2023/06/03 10:45:52;;;;;;;8.07;6.20;;;22.60;85.40;;;;;;7404122;19;19910;-73
2023/06/03 10:48:21;;;;;;;9.75;6.97;;;22.80;85.80;;;;;;7399248;19;20336;-73
2023/06/03 10:51:05;;;;;;;10.50;7.53;;;23.00;85.90;;;;;;7400600;19;19919;-74
2023/06/03 10:53:57;;;;;;;10.32;6.70;;;23.00;86.60;;;;;;7398070;19;19994;-74
2023/06/03 10:56:42;;;;;;;12.45;6.85;;;22.90;87.80;;;;;;7399319;19;20256;-73
2023/06/03 10:59:12;;;;;;;10.75;6.70;;;22.80;87.00;;;;;;7402964;19;19947;-74
2023/06/03 11:02:01;;;;;;;10.27;7.80;;;22.80;87.10;;;;;;7403689;19;19910;-74
2023/06/03 11:04:29;;;;;;;10.00;6.05;;;22.80;87.10;;;;;;7401523;19;20285;-74
2023/06/03 11:06:56;;;;;;;10.75;5.90;;;22.50;86.90;;;;;;7400988;19;19921;-74
2023/06/03 11:09:30;;;;;;;;;;;22.40;87.10;;;;;;7404179;19;20343;-73
2023/06/03 11:12:05;;;;;;;7.93;5.75;;;22.50;86.90;;;;;;7401291;19;19926;-74
2023/06/03 11:14:38;;;;;;;8.95;6.38;;;22.00;87.00;;;;;;7404656;19;20268;-74
2023/06/03 11:17:03;;;;;;;6.97;4.88;;;22.00;87.50;;;;;;7403346;19;19918;-74
2023/06/03 11:19:31;;;;;;;8.40;5.10;;;22.00;87.20;;;;;;7399810;19;19921;-74
2023/06/03 11:22:09;;;;;;;9.38;5.55;;;21.80;88.00;;;;;;7403534;19;19915;-73
2023/06/03 11:24:41;;;;;;;;;;;21.80;89.90;;;;;;7402056;19;19911;-74
2023/06/03 11:27:13;;;;;;;10.40;5.88;;;21.70;90.70;;;;;;7400765;19;19910;-74
2023/06/03 11:29:51;;;;;;;7.50;4.70;;;21.70;90.60;;;;;;7403437;19;19926;-74
2023/06/03 11:32:18;;;;;;;7.93;4.90;;;21.90;89.80;;;;;;7399248;19;19918;-75
2023/06/03 11:34:45;;;;;;;10.13;4.80;;;22.10;89.50;;;;;;7402967;19;19922;-74
2023/06/03 11:37:15;;;;;;;10.05;5.20;;;22.00;87.80;;;;;;7399722;19;20002;-74
2023/06/03 11:40:05;;;;;;;8.95;5.10;;;22.00;89.40;;;;;;7397788;19;19919;-73
2023/06/03 11:42:32;;;;;;;6.50;3.58;;;21.80;86.40;;;;;;7399768;19;19921;-73
2023/06/03 11:45:16;;;;;;;;;;;21.80;84.40;;;;;;7403167;19;19925;-74
2023/06/03 11:48:02;;;;;;;6.78;3.92;;;21.40;87.50;;;;;;7400439;19;19918;-74
2023/06/03 11:50:33;;;;;;;5.82;3.80;;;21.60;87.30;;;;;;7359709;19;19918;-74
2023/06/03 11:52:59;;;;;;;7.85;4.35;;;21.50;87.30;;;;;;7404139;19;19922;-74
2023/06/03 11:55:25;;;;;;;7.82;4.22;;;21.40;86.40;;;;;;7403305;19;19938;-73
2023/06/03 11:57:51;;;;;;;;;;;21.40;87.00;;;;;;7405057;19;19942;-73
2023/06/03 12:00:20;;;;;;;6.88;4.32;;;21.30;86.90;;;;;;7402413;19;19918;-74
2023/06/03 12:02:47;;;;;;;8.48;4.60;;;21.40;88.70;;;;;;7405693;19;19922;-74
2023/06/03 12:05:15;;;;;;;8.10;4.80;;;21.50;88.50;;;;;;7401055;19;19922;-73
2023/06/03 12:08:01;;;;;;;8.80;4.80;;;21.50;88.20;;;;;;7402595;19;20236;-75
2023/06/03 12:10:28;;;;;;;8.77;5.53;;;21.40;89.70;;;;;;7355793;19;19932;-73
2023/06/03 12:12:55;;;;;;;10.38;5.50;;;21.40;90.20;;;;;;7399171;19;19964;-73
2023/06/03 12:15:22;;;;;;;7.68;4.20;;;21.30;90.30;;;;;;7400361;19;19955;-74
2023/06/03 12:17:49;;;;;;;8.23;4.88;;;21.40;90.20;;;;;;7401780;19;19914;-74
2023/06/03 12:20:28;;;;;;;9.98;5.60;;;21.60;90.20;;;;;;7400476;19;19918;-74
2023/06/03 12:23:05;;;;;;;11.07;6.18;;;21.70;90.30;;;;;;7403421;19;19918;-73
2023/06/03 12:25:33;;;;;;;9.35;6.20;;;21.70;90.40;;;;;;7402741;19;19918;-74
2023/06/03 12:28:22;;;;;;;8.90;5.82;;;21.60;90.60;;;;;;7401770;19;19914;-73
2023/06/03 12:30:49;;;;;;;8.43;6.18;;;21.60;90.00;;;;;;7401433;19;19956;-74
2023/06/03 12:33:15;;;;;;;11.82;6.45;;;21.60;90.40;;;;;;7399143;19;19953;-73
2023/06/03 12:35:52;;;;;;;9.55;5.75;;;21.60;90.90;;;;;;7403448;19;19961;-73
2023/06/03 12:38:18;;;;;;;9.05;5.90;;;21.50;91.00;;;;;;7399758;19;19939;-74
2023/06/03 12:40:45;;;;;;;11.95;6.45;;;21.60;91.10;;;;;;7404239;19;19914;-74
2023/06/03 12:43:22;;;;;;;9.65;6.65;;;21.50;91.40;;;;;;7404208;19;19910;-74
2023/06/03 12:45:48;;;;;;;11.60;6.68;;;21.50;91.70;;;;;;7399970;19;20357;-74